createdAt,value
2023-11-14T00:00:29.643Z,2.85
2023-11-14T00:02:56.056Z,3.67
2023-11-14T00:05:22.560Z,2.83
2023-11-14T00:07:49.099Z,1.92
2023-11-14T00:10:17.306Z,0.77
2023-11-14T00:12:43.711Z,2.28
2023-11-14T00:15:10.263Z,4.07
2023-11-14T00:17:36.819Z,5.40
2023-11-14T00:20:03.620Z,4.20
2023-11-14T00:22:30.132Z,3.05
2023-11-14T00:24:56.507Z,0.90
2023-11-14T00:27:22.956Z,3.25
2023-11-14T00:29:49.293Z,1.85
2023-11-14T00:32:15.710Z,3.70
2023-11-14T00:34:42.268Z,2.00
2023-11-14T00:37:08.628Z,3.65
2023-11-14T00:39:35.031Z,1.00
2023-11-14T00:42:01.393Z,5.35
2023-11-14T00:44:27.847Z,3.83
2023-11-14T00:46:54.428Z,3.38
2023-11-14T00:49:20.805Z,3.20
2023-11-14T00:51:47.155Z,3.60
2023-11-14T00:54:13.639Z,3.53
2023-11-14T00:56:39.989Z,4.07
2023-11-14T00:59:06.371Z,2.97
2023-11-14T01:01:33.012Z,4.07
2023-11-14T01:03:59.471Z,3.35
2023-11-14T01:06:25.866Z,2.40
2023-11-14T01:08:54.201Z,5.65
2023-11-14T01:11:20.825Z,3.92
2023-11-14T01:13:47.307Z,5.20
2023-11-14T01:16:16.031Z,3.22
2023-11-14T01:18:42.402Z,3.90
2023-11-14T01:21:09.180Z,4.80
2023-11-14T01:23:35.630Z,3.05
2023-11-14T01:26:03.077Z,6.07
2023-11-14T01:28:29.599Z,3.90
2023-11-14T01:30:56.030Z,3.53
2023-11-14T01:33:22.512Z,3.97
2023-11-14T01:35:48.989Z,2.97
2023-11-14T01:38:15.332Z,4.07
2023-11-14T01:40:52.512Z,2.60
2023-11-14T01:43:19.053Z,1.45
2023-11-14T01:45:45.457Z,4.00
2023-11-14T01:48:12.715Z,4.72
2023-11-14T01:50:39.539Z,4.72
2023-11-14T01:53:06.070Z,4.30
2023-11-14T01:55:32.659Z,4.90
2023-11-14T01:57:59.112Z,4.57
2023-11-14T02:00:25.992Z,4.80
2023-11-14T02:02:53.369Z,6.22
2023-11-14T02:05:20.533Z,3.47
2023-11-14T02:07:47.757Z,5.28
2023-11-14T02:10:14.169Z,4.63
2023-11-14T02:12:40.595Z,4.45
2023-11-14T02:15:07.740Z,2.50
2023-11-14T02:17:34.271Z,4.90
2023-11-14T02:20:00.807Z,3.78
2023-11-14T02:22:27.551Z,5.18
2023-11-14T02:24:54.315Z,4.55
2023-11-14T02:27:20.870Z,2.65
2023-11-14T02:29:48.660Z,3.60
2023-11-14T02:32:15.124Z,8.05
2023-11-14T02:34:41.482Z,5.75
2023-11-14T02:37:07.976Z,3.08
2023-11-14T02:39:34.386Z,4.05
2023-11-14T02:42:00.938Z,3.10
2023-11-14T02:44:27.469Z,4.82
2023-11-14T02:46:54.610Z,3.35
2023-11-14T02:49:42.758Z,8.40
2023-11-14T02:52:09.118Z,5.80
2023-11-14T02:54:35.532Z,7.30
2023-11-14T02:57:01.967Z,5.10
2023-11-14T02:59:28.305Z,4.22
2023-11-14T03:01:54.715Z,6.68
2023-11-14T03:04:21.060Z,6.80
2023-11-14T03:06:47.519Z,5.13
2023-11-14T03:09:13.875Z,4.00
2023-11-14T03:11:40.349Z,5.20
2023-11-14T03:14:06.753Z,1.83
2023-11-14T03:16:33.224Z,3.17
2023-11-14T03:18:59.654Z,4.43
2023-11-14T03:21:26.022Z,6.68
2023-11-14T03:23:52.381Z,6.15
2023-11-14T03:26:18.723Z,5.70
2023-11-14T03:28:45.155Z,4.38
2023-11-14T03:31:11.547Z,5.53
2023-11-14T03:33:38.341Z,7.28
2023-11-14T03:36:05.299Z,3.97
2023-11-14T03:38:31.713Z,5.65
2023-11-14T03:40:58.076Z,5.20
2023-11-14T03:43:24.583Z,5.05
2023-11-14T03:45:50.968Z,5.60
2023-11-14T03:48:17.359Z,6.18
2023-11-14T03:50:43.693Z,7.28
2023-11-14T03:53:10.144Z,4.40
2023-11-14T03:55:36.546Z,3.33
2023-11-14T03:58:02.922Z,6.35
2023-11-14T04:00:29.393Z,5.28
2023-11-14T04:02:55.893Z,3.92
2023-11-14T04:05:22.315Z,8.32
2023-11-14T04:07:48.823Z,8.10
2023-11-14T04:10:15.314Z,2.50
2023-11-14T04:12:41.787Z,2.70
2023-11-14T04:15:08.656Z,3.17
2023-11-14T04:17:35.182Z,5.70
2023-11-14T04:20:01.704Z,5.32
2023-11-14T04:22:28.090Z,5.05
2023-11-14T04:24:54.513Z,2.85
2023-11-14T04:27:20.964Z,6.22
2023-11-14T04:29:47.466Z,5.25
2023-11-14T04:32:14.003Z,8.55
2023-11-14T04:34:40.379Z,4.07
2023-11-14T04:37:06.711Z,6.38
2023-11-14T04:39:33.333Z,5.57
2023-11-14T04:41:59.836Z,6.00
2023-11-14T04:44:26.329Z,5.07
2023-11-14T04:46:52.854Z,3.40
2023-11-14T04:49:19.298Z,3.70
2023-11-14T04:51:45.629Z,2.17
2023-11-14T04:54:12.056Z,5.28
2023-11-14T04:56:38.401Z,3.42
2023-11-14T04:59:04.968Z,5.75
2023-11-14T05:01:31.425Z,6.20
2023-11-14T05:03:57.879Z,4.70
2023-11-14T05:06:24.240Z,10.73
2023-11-14T05:08:50.714Z,5.72
2023-11-14T05:11:17.208Z,6.15
2023-11-14T05:13:44.380Z,6.32
2023-11-14T05:16:19.206Z,5.50
2023-11-14T05:18:49.027Z,7.45
2023-11-14T05:21:15.391Z,9.73
2023-11-14T05:23:41.725Z,6.28
2023-11-14T05:26:08.484Z,6.93
2023-11-14T05:28:38.152Z,8.52
2023-11-14T05:31:04.558Z,5.60
2023-11-14T05:33:31.058Z,4.05
2023-11-14T05:35:57.426Z,4.35
2023-11-14T05:38:23.867Z,7.03
2023-11-14T05:40:50.381Z,7.28
2023-11-14T05:43:17.580Z,5.20
2023-11-14T05:45:44.326Z,8.00
2023-11-14T05:48:10.812Z,4.85
2023-11-14T05:50:38.333Z,8.48
2023-11-14T05:53:04.705Z,5.95
2023-11-14T05:55:31.063Z,6.95
2023-11-14T05:58:01.032Z,5.95
2023-11-14T06:00:27.388Z,6.68
2023-11-14T06:02:54.967Z,5.50
2023-11-14T06:07:47.728Z,7.40
2023-11-14T06:10:14.063Z,7.65
2023-11-14T06:12:40.408Z,4.88
2023-11-14T06:15:08.052Z,4.38
2023-11-14T06:20:01.028Z,8.02
2023-11-14T06:22:27.373Z,6.38
2023-11-14T06:24:54.082Z,4.15
2023-11-14T06:27:20.428Z,3.03
2023-11-14T06:29:47.255Z,6.43
2023-11-14T06:32:13.563Z,6.63
2023-11-14T06:34:40.277Z,8.45
2023-11-14T06:37:06.739Z,6.45
2023-11-14T06:39:33.150Z,6.47
2023-11-14T06:41:59.494Z,9.52
2023-11-14T06:44:25.810Z,6.70
2023-11-14T06:46:53.505Z,4.68
2023-11-14T06:49:20.144Z,6.03
2023-11-14T06:51:46.624Z,8.60
2023-11-14T06:54:12.968Z,5.20
2023-11-14T06:56:39.318Z,9.98
2023-11-14T06:59:05.820Z,7.65
2023-11-14T07:01:32.191Z,7.05
2023-11-14T07:04:00.294Z,3.65
2023-11-14T07:06:26.736Z,4.35
2023-11-14T07:08:53.897Z,8.13
2023-11-14T07:11:20.447Z,4.90
2023-11-14T07:13:46.804Z,5.30
2023-11-14T07:16:13.655Z,4.88
2023-11-14T07:18:40.930Z,7.90
2023-11-14T07:21:07.845Z,9.68
2023-11-14T07:23:34.181Z,4.00
2023-11-14T07:26:00.944Z,8.65
2023-11-14T07:28:27.418Z,5.97
2023-11-14T07:30:53.902Z,8.18
2023-11-14T07:33:20.247Z,4.55
2023-11-14T07:35:46.643Z,4.95
2023-11-14T07:38:13.138Z,7.60
2023-11-14T07:40:39.600Z,4.03
2023-11-14T07:43:05.965Z,6.97
2023-11-14T07:45:32.924Z,6.45
2023-11-14T07:47:59.811Z,8.35
2023-11-14T07:50:26.734Z,4.40
2023-11-14T07:52:53.134Z,7.90
2023-11-14T07:55:20.030Z,4.63
2023-11-14T07:57:46.380Z,4.25
2023-11-14T08:00:14.921Z,4.65
2023-11-14T08:02:42.710Z,2.50
2023-11-14T08:07:36.619Z,3.38
2023-11-14T08:10:03.124Z,6.05
2023-11-14T08:12:29.472Z,6.35
2023-11-14T08:14:55.862Z,3.38
2023-11-14T08:17:22.246Z,4.57
2023-11-14T08:19:48.714Z,5.32
2023-11-14T08:22:15.114Z,5.18
2023-11-14T08:24:41.465Z,4.35
2023-11-14T08:27:08.665Z,5.28
2023-11-14T08:29:37.888Z,6.03
2023-11-14T08:32:04.583Z,4.30
2023-11-14T08:34:31.316Z,10.20
2023-11-14T08:36:57.704Z,4.15
2023-11-14T08:39:26.699Z,7.30
2023-11-14T08:41:54.003Z,6.25
2023-11-14T08:44:20.394Z,4.00
2023-11-14T08:46:46.840Z,8.63
2023-11-14T08:49:13.429Z,6.35
2023-11-14T08:51:39.920Z,4.55
2023-11-14T08:54:06.532Z,8.50
2023-11-14T08:56:32.910Z,8.73
2023-11-14T08:58:59.296Z,5.95
2023-11-14T09:01:25.753Z,4.63
2023-11-14T09:03:52.564Z,3.55
2023-11-14T09:06:18.911Z,6.85
2023-11-14T09:08:45.267Z,6.00
2023-11-14T09:11:12.648Z,4.65
2023-11-14T09:13:39.096Z,2.83
2023-11-14T09:16:06.440Z,6.15
2023-11-14T09:18:32.884Z,4.93
2023-11-14T09:20:59.315Z,2.78
2023-11-14T09:23:26.154Z,7.10
2023-11-14T09:25:52.521Z,7.47
2023-11-14T09:28:21.255Z,3.22
2023-11-14T09:30:48.520Z,5.75
2023-11-14T09:33:14.894Z,4.15
2023-11-14T09:35:41.633Z,6.68
2023-11-14T09:38:08.895Z,5.47
2023-11-14T09:40:35.400Z,6.03
2023-11-14T09:43:02.275Z,5.88
2023-11-14T09:45:28.786Z,2.28
2023-11-14T09:47:55.517Z,4.32
2023-11-14T09:50:23.078Z,5.70
2023-11-14T09:52:53.072Z,3.35
2023-11-14T09:55:19.551Z,2.70
2023-11-14T10:00:14.751Z,3.65
2023-11-14T10:02:41.331Z,5.50
2023-11-14T10:05:14.573Z,2.60
2023-11-14T10:07:44.141Z,5.20
2023-11-14T10:12:41.370Z,3.85
2023-11-14T10:15:10.369Z,3.42
2023-11-14T10:17:55.178Z,4.82
2023-11-14T10:20:26.299Z,2.22
2023-11-14T10:25:34.247Z,5.60
2023-11-14T10:28:05.878Z,5.05
2023-11-14T10:30:45.281Z,4.72
2023-11-14T10:33:13.324Z,5.78
2023-11-14T10:35:42.709Z,3.75
2023-11-14T10:38:23.841Z,5.75
2023-11-14T10:40:53.520Z,3.65
2023-11-14T10:43:26.744Z,4.43
2023-11-14T10:45:54.093Z,2.47
2023-11-14T10:48:25.066Z,3.38
2023-11-14T10:50:52.431Z,2.60
2023-11-14T10:53:19.391Z,4.28
2023-11-14T10:55:50.790Z,1.55
2023-11-14T10:58:19.051Z,6.18
2023-11-14T11:00:45.509Z,2.88
2023-11-14T11:03:14.877Z,3.22
2023-11-14T11:05:42.124Z,2.40
2023-11-14T11:08:08.578Z,2.97
2023-11-14T11:10:36.425Z,3.92
2023-11-14T11:13:15.224Z,3.75
2023-11-14T11:15:47.146Z,3.28
2023-11-14T11:18:14.327Z,2.40
2023-11-14T11:20:41.128Z,3.33
2023-11-14T11:23:10.301Z,2.22
2023-11-14T11:25:38.334Z,3.05
2023-11-14T11:28:19.762Z,2.70
2023-11-14T11:31:11.832Z,3.05
2023-11-14T11:33:39.906Z,2.58
2023-11-14T11:36:21.449Z,3.45
2023-11-14T11:38:58.807Z,2.67
2023-11-14T11:41:29.974Z,3.03
2023-11-14T11:44:12.640Z,2.05
2023-11-14T11:46:41.329Z,2.67
2023-11-14T11:49:10.656Z,2.08
2023-11-14T11:51:39.073Z,5.18
2023-11-14T11:54:28.305Z,3.13
2023-11-14T11:57:06.776Z,3.50
2023-11-14T11:59:45.130Z,4.47
2023-11-14T12:02:15.748Z,2.20
2023-11-14T12:04:42.317Z,2.58
2023-11-14T12:07:09.123Z,3.63
2023-11-14T12:09:38.963Z,2.03
2023-11-14T12:12:05.742Z,1.42
2023-11-14T12:14:32.665Z,1.30
2023-11-14T12:16:59.527Z,2.05
2023-11-14T12:19:26.833Z,2.00
2023-11-14T12:21:55.357Z,2.03
2023-11-14T12:24:21.769Z,2.80
2023-11-14T12:26:48.222Z,1.02
2023-11-14T12:29:15.996Z,3.95
2023-11-14T12:31:53.426Z,2.08
2023-11-14T12:34:29.963Z,3.28
2023-11-14T12:37:11.329Z,2.70
2023-11-14T12:39:38.379Z,4.88
2023-11-14T12:42:05.279Z,3.33
2023-11-14T12:44:34.316Z,1.90
2023-11-14T12:47:00.780Z,1.60
2023-11-14T12:49:27.186Z,1.85
2023-11-14T12:51:54.465Z,2.45
2023-11-14T12:54:24.871Z,1.63
2023-11-14T12:56:53.063Z,1.90
2023-11-14T12:59:20.277Z,2.22
2023-11-14T13:01:49.230Z,6.22
2023-11-14T13:04:15.969Z,6.03
2023-11-14T13:06:47.238Z,2.25
2023-11-14T13:09:16.272Z,4.00
2023-11-14T13:11:43.257Z,2.90
2023-11-14T13:14:10.510Z,2.80
2023-11-14T13:16:36.987Z,1.60
2023-11-14T13:19:03.965Z,1.77
2023-11-14T13:21:30.541Z,2.80
2023-11-14T13:23:57.342Z,7.03
2023-11-14T13:26:23.887Z,2.35
2023-11-14T13:28:50.719Z,1.33
2023-11-14T13:31:17.987Z,2.97
2023-11-14T13:33:45.092Z,1.48
2023-11-14T13:36:11.488Z,3.47
2023-11-14T13:38:38.425Z,2.17
2023-11-14T13:41:16.103Z,4.25
2023-11-14T13:43:43.317Z,1.98
2023-11-14T13:46:20.657Z,2.80
2023-11-14T13:48:53.455Z,6.65
2023-11-14T13:51:19.912Z,1.63
2023-11-14T13:53:46.296Z,1.77
2023-11-14T13:56:12.822Z,3.55
2023-11-14T13:58:39.289Z,2.50
2023-11-14T14:01:06.232Z,2.72
2023-11-14T14:03:33.116Z,2.45
2023-11-14T14:06:01.026Z,6.25
2023-11-14T14:08:27.788Z,4.38
2023-11-14T14:10:54.142Z,3.97
2023-11-14T14:13:20.544Z,2.60
2023-11-14T14:15:47.191Z,2.47
2023-11-14T14:18:13.868Z,1.48
2023-11-14T14:20:40.569Z,5.70
2023-11-14T14:23:06.950Z,5.43
2023-11-14T14:25:33.798Z,2.38
2023-11-14T14:28:00.178Z,2.03
2023-11-14T14:30:27.804Z,3.78
2023-11-14T14:32:54.182Z,3.15
2023-11-14T14:35:20.847Z,2.20
2023-11-14T14:37:47.216Z,6.05
2023-11-14T14:40:13.818Z,3.72
2023-11-14T14:42:40.171Z,3.88
2023-11-14T14:45:10.849Z,2.90
2023-11-14T14:47:37.936Z,3.85
2023-11-14T14:50:05.740Z,2.08
2023-11-14T14:52:32.822Z,3.17
2023-11-14T14:54:59.428Z,1.88
2023-11-14T14:57:25.761Z,2.35
2023-11-14T14:59:52.120Z,2.20
2023-11-14T15:02:18.534Z,3.33
2023-11-14T15:04:44.892Z,4.32
2023-11-14T15:07:11.638Z,3.67
2023-11-14T15:09:37.970Z,5.30
2023-11-14T15:12:05.236Z,1.85
2023-11-14T15:14:33.073Z,3.33
2023-11-14T15:16:59.720Z,4.13
2023-11-14T15:19:26.068Z,5.75
2023-11-14T15:21:52.422Z,4.00
2023-11-14T15:24:18.783Z,3.85
2023-11-14T15:26:45.106Z,4.80
2023-11-14T15:29:11.461Z,4.28
2023-11-14T15:31:37.831Z,5.25
2023-11-14T15:34:04.292Z,4.80
2023-11-14T15:36:31.661Z,1.45
2023-11-14T15:38:58.593Z,4.32
2023-11-14T15:41:25.514Z,4.07
2023-11-14T15:43:52.012Z,2.72
2023-11-14T15:46:18.461Z,2.25
2023-11-14T15:48:45.116Z,5.10
2023-11-14T15:51:11.458Z,8.23
2023-11-14T15:53:37.806Z,2.55
2023-11-14T15:56:04.664Z,3.53
2023-11-14T15:58:31.409Z,6.97
2023-11-14T16:00:58.169Z,5.20
2023-11-14T16:03:24.922Z,3.25
2023-11-14T16:05:51.415Z,3.85
2023-11-14T16:08:17.858Z,6.43
2023-11-14T16:10:44.227Z,3.25
2023-11-14T16:13:10.763Z,4.75
2023-11-14T16:15:37.108Z,4.15
2023-11-14T16:18:03.600Z,3.08
2023-11-14T16:20:30.038Z,4.70
2023-11-14T16:22:56.438Z,4.53
2023-11-14T16:25:23.171Z,4.95
2023-11-14T16:27:49.605Z,5.35
2023-11-14T16:30:16.065Z,4.68
2023-11-14T16:32:42.487Z,4.82
2023-11-14T16:35:09.140Z,6.85
2023-11-14T16:37:36.414Z,3.70
2023-11-14T16:40:02.815Z,5.60
2023-11-14T16:42:29.211Z,5.35
2023-11-14T16:44:55.693Z,6.30
2023-11-14T16:47:22.069Z,4.03
2023-11-14T16:49:48.450Z,6.43
2023-11-14T16:52:14.789Z,3.97
2023-11-14T16:54:43.999Z,3.97
2023-11-14T16:57:10.655Z,4.05
2023-11-14T16:59:37.022Z,3.38
2023-11-14T17:02:03.430Z,4.50
2023-11-14T17:04:29.841Z,4.93
2023-11-14T17:06:56.496Z,3.38
2023-11-14T17:09:22.882Z,3.20
2023-11-14T17:11:49.300Z,2.72
2023-11-14T17:14:15.670Z,2.67
2023-11-14T17:16:42.075Z,3.13
2023-11-14T17:19:08.431Z,15.57
2023-11-14T17:21:34.815Z,42.95
2023-11-14T17:24:01.439Z,27.45
2023-11-14T17:26:28.064Z,11.73
2023-11-14T17:28:54.462Z,9.88
2023-11-14T17:31:20.789Z,16.42
2023-11-14T17:33:47.089Z,5.53
2023-11-14T17:36:13.505Z,2.67
2023-11-14T17:38:39.941Z,3.55
2023-11-14T17:41:06.714Z,5.18
2023-11-14T17:43:33.083Z,5.15
2023-11-14T17:45:59.546Z,3.13
2023-11-14T17:48:26.043Z,2.80
2023-11-14T17:50:52.541Z,5.13
2023-11-14T17:53:19.051Z,6.13
2023-11-14T17:55:45.554Z,2.47
2023-11-14T17:58:11.976Z,9.27
2023-11-14T18:00:38.510Z,3.92
2023-11-14T18:03:05.114Z,5.65
2023-11-14T18:05:31.996Z,3.53
2023-11-14T18:07:58.488Z,4.25
2023-11-14T18:10:24.820Z,2.92
2023-11-14T18:12:51.348Z,3.78
2023-11-14T18:15:18.618Z,5.25
2023-11-14T18:17:45.323Z,3.72
2023-11-14T18:20:12.516Z,3.90
2023-11-14T18:22:39.031Z,2.78
2023-11-14T18:25:05.581Z,2.95
2023-11-14T18:27:31.920Z,4.75
2023-11-14T18:29:58.429Z,3.95
2023-11-14T18:32:24.864Z,3.75
2023-11-14T18:34:52.824Z,3.67
2023-11-14T18:37:19.160Z,3.75
2023-11-14T18:39:45.731Z,3.22
2023-11-14T18:42:12.075Z,3.88
2023-11-14T18:44:38.648Z,3.75
2023-11-14T18:47:07.825Z,3.83
2023-11-14T18:49:34.535Z,3.90
2023-11-14T18:52:00.928Z,5.28
2023-11-14T18:54:27.730Z,3.90
2023-11-14T18:56:54.116Z,4.28
2023-11-14T18:59:20.579Z,3.85
2023-11-14T19:01:47.013Z,3.80
2023-11-14T19:04:14.882Z,2.22
2023-11-14T19:06:41.335Z,2.38
2023-11-14T19:09:07.699Z,2.72
2023-11-14T19:11:34.119Z,4.05
2023-11-14T19:14:03.999Z,2.60
2023-11-14T19:16:31.188Z,3.30
2023-11-14T19:18:57.701Z,3.28
2023-11-14T19:21:43.772Z,4.68
2023-11-14T19:24:11.530Z,3.03
2023-11-14T19:29:04.962Z,3.50
2023-11-14T19:31:31.687Z,3.13
2023-11-14T19:33:58.038Z,5.35
2023-11-14T19:36:24.398Z,3.40
2023-11-14T19:38:51.049Z,3.08
2023-11-14T19:41:17.576Z,3.17
2023-11-14T19:43:45.018Z,2.78
2023-11-14T19:46:12.440Z,5.63
2023-11-14T19:48:39.231Z,3.92
2023-11-14T19:51:05.686Z,4.13
2023-11-14T19:53:34.042Z,3.03
2023-11-14T19:56:00.663Z,4.80
2023-11-14T19:58:27.007Z,3.42
2023-11-14T20:00:53.471Z,3.85
2023-11-14T20:03:20.171Z,6.60
2023-11-14T20:05:46.682Z,3.63
2023-11-14T20:08:14.238Z,3.58
2023-11-14T20:13:06.906Z,3.92
2023-11-14T20:15:33.322Z,3.20
2023-11-14T20:17:59.860Z,5.43
2023-11-14T20:20:26.274Z,3.13
2023-11-14T20:22:53.053Z,4.07
2023-11-14T20:25:19.872Z,5.05
2023-11-14T20:27:46.922Z,4.20
2023-11-14T20:30:13.634Z,3.88
2023-11-14T20:32:40.053Z,2.40
2023-11-14T20:35:06.727Z,3.45
2023-11-14T20:37:33.559Z,2.78
2023-11-14T20:40:00.308Z,1.70
2023-11-14T20:42:26.684Z,2.20
2023-11-14T20:44:53.105Z,2.92
2023-11-14T20:47:19.498Z,1.25
2023-11-14T20:49:45.917Z,2.13
2023-11-14T20:52:12.276Z,1.85
2023-11-14T20:54:38.634Z,1.13
2023-11-14T20:57:05.355Z,1.30
2023-11-14T20:59:32.094Z,1.80
2023-11-14T21:01:58.488Z,0.85
2023-11-14T21:04:25.186Z,1.67
2023-11-14T21:06:51.748Z,1.83
2023-11-14T21:09:18.712Z,2.15
2023-11-14T21:11:46.466Z,0.82
2023-11-14T21:14:13.300Z,2.67
2023-11-14T21:16:39.852Z,1.02
2023-11-14T21:19:06.280Z,1.35
2023-11-14T21:21:32.699Z,1.05
2023-11-14T21:23:59.204Z,3.15
2023-11-14T21:26:26.083Z,1.67
2023-11-14T21:28:52.509Z,0.80
2023-11-14T21:31:18.933Z,1.92
2023-11-14T21:33:45.318Z,1.08
2023-11-14T21:36:12.138Z,1.02
2023-11-14T21:38:39.052Z,2.47
2023-11-14T21:41:05.684Z,1.70
2023-11-14T21:43:32.126Z,1.38
2023-11-14T21:45:58.958Z,2.03
2023-11-14T21:48:25.454Z,1.42
2023-11-14T21:50:51.936Z,1.50
2023-11-14T21:53:18.380Z,1.02
2023-11-14T21:55:44.873Z,1.55
2023-11-14T21:58:11.800Z,1.30
2023-11-14T22:00:38.215Z,1.30
2023-11-14T22:03:04.736Z,0.82
2023-11-14T22:05:31.668Z,1.13
2023-11-14T22:07:58.008Z,2.65
2023-11-14T22:10:24.382Z,0.60
2023-11-14T22:12:50.813Z,1.63
2023-11-14T22:15:17.149Z,1.35
2023-11-14T22:17:43.601Z,1.85
2023-11-14T22:20:10.324Z,0.93
2023-11-14T22:22:36.783Z,1.85
2023-11-14T22:25:03.226Z,1.13
2023-11-14T22:27:29.655Z,0.80
2023-11-14T22:29:56.022Z,1.15
2023-11-14T22:32:22.709Z,1.88
2023-11-14T22:34:49.055Z,0.45
2023-11-14T22:37:15.403Z,1.10
2023-11-14T22:39:41.731Z,1.35
2023-11-14T22:42:08.074Z,1.45
2023-11-14T22:44:34.491Z,0.93
2023-11-14T22:47:00.899Z,0.63
2023-11-14T22:49:27.316Z,0.80
2023-11-14T22:51:53.945Z,1.35
2023-11-14T22:54:20.349Z,0.82
2023-11-14T22:56:46.828Z,0.77
2023-11-14T22:59:13.198Z,1.33
2023-11-14T23:01:39.627Z,1.00
2023-11-14T23:04:07.113Z,0.90
2023-11-14T23:08:59.782Z,1.75
2023-11-14T23:11:26.205Z,0.73
2023-11-14T23:13:53.924Z,0.90
2023-11-14T23:16:20.454Z,0.82
2023-11-14T23:18:47.026Z,0.80
2023-11-14T23:21:13.382Z,0.98
2023-11-14T23:23:39.842Z,0.85
2023-11-14T23:26:06.259Z,0.80
2023-11-14T23:28:32.890Z,1.00
2023-11-14T23:30:59.331Z,0.98
2023-11-14T23:33:25.774Z,0.82
2023-11-14T23:35:52.128Z,0.90
2023-11-14T23:38:19.595Z,0.95
2023-11-14T23:43:12.677Z,0.60
2023-11-14T23:45:39.173Z,1.70
2023-11-14T23:48:05.814Z,1.17
2023-11-14T23:50:32.366Z,1.15
2023-11-14T23:52:58.915Z,0.43
2023-11-14T23:55:25.781Z,0.90
2023-11-14T23:57:52.179Z,2.13
